Time;durP1;ratioP1;P1;durP2;ratioP2;P2;SDS_P1;SDS_P2;PMS_P1;PMS_P2;Temp;Humidity;BMP_temperature;BMP_pressure;BME280_temperature;BME280_humidity;BME280_pressure;Samples;Min_cycle;Max_cycle;Signal;HPM_P1;HPM_P2
2022/07/22 00:00:40;;;;;;;8.27;4.15;;;;;;;15.78;100.00;102010.88;6148893;23;20032;-78
2022/07/22 00:03:08;;;;;;;19.05;4.95;;;;;;;15.78;100.00;102010.88;6096678;23;20486;-78
2022/07/22 00:05:37;;;;;;;17.90;4.45;;;;;;;15.78;100.00;102016.19;6092418;23;20439;-78
2022/07/22 00:08:05;;;;;;;17.67;4.63;;;;;;;15.78;100.00;102017.09;6147710;23;20367;-78
2022/07/22 00:10:34;;;;;;;10.07;4.10;;;;;;;15.77;100.00;102023.28;6160322;23;20017;-78
2022/07/22 00:13:03;;;;;;;14.35;4.47;;;;;;;15.76;100.00;102021.53;6094850;23;20359;-78
2022/07/22 00:15:31;;;;;;;18.52;4.78;;;;;;;15.77;100.00;102025.06;6175532;23;20024;-78
2022/07/22 00:18:00;;;;;;;22.08;5.43;;;;;;;15.79;100.00;102032.16;6119268;23;20143;-78
2022/07/22 00:20:30;;;;;;;19.92;4.68;;;;;;;15.81;100.00;102021.53;6175111;23;20021;-78
2022/07/22 00:22:59;;;;;;;16.90;5.25;;;;;;;15.80;100.00;102030.38;6112882;23;20021;-78
2022/07/22 00:25:28;;;;;;;16.95;5.55;;;;;;;15.80;100.00;102033.03;6160162;23;20354;-78
2022/07/22 00:27:57;;;;;;;14.10;4.43;;;;;;;15.81;100.00;102034.81;6166226;23;20290;-78
2022/07/22 00:30:26;;;;;;;25.48;4.90;;;;;;;15.84;100.00;102033.91;6147247;23;20028;-78
2022/07/22 00:32:54;;;;;;;15.07;4.00;;;;;;;15.87;100.00;102033.94;6118065;23;20052;-79
2022/07/22 00:35:24;;;;;;;15.90;4.38;;;;;;;15.85;100.00;102031.28;6156810;23;20048;-78
2022/07/22 00:37:53;;;;;;;10.52;3.58;;;;;;;15.84;100.00;102037.50;6137774;23;20028;-78
2022/07/22 00:40:22;;;;;;;13.63;3.90;;;;;;;15.85;100.00;102028.63;6150745;23;20029;-78
2022/07/22 00:42:51;;;;;;;11.70;4.03;;;;;;;15.87;100.00;102020.66;6168614;23;20459;-78
2022/07/22 00:45:19;;;;;;;12.88;3.50;;;;;;;15.88;100.00;102014.44;6151663;23;20021;-78
2022/07/22 00:47:48;;;;;;;11.07;4.50;;;;;;;15.88;100.00;102009.09;6170221;23;20032;-78
2022/07/22 00:50:19;;;;;;;9.43;3.13;;;;;;;15.84;100.00;102010.91;6160583;23;20021;-78
2022/07/22 00:52:48;;;;;;;5.93;2.40;;;;;;;15.83;100.00;102009.13;6129947;23;20017;-78
2022/07/22 00:55:17;;;;;;;8.32;3.00;;;;;;;15.81;100.00;102016.22;6184543;23;20021;-78
2022/07/22 00:57:48;;;;;;;7.28;2.63;;;;;;;15.82;100.00;102017.97;6146850;23;20032;-78
2022/07/22 01:00:20;;;;;;;11.40;3.00;;;;;;;15.82;100.00;102015.31;6127805;23;20028;-80
2022/07/22 01:02:50;;;;;;;9.15;2.70;;;;;;;15.84;100.00;102018.88;6149800;23;20017;-81
2022/07/22 01:05:20;;;;;;;9.70;2.85;;;;;;;15.85;100.00;102023.28;6157527;23;20021;-81
2022/07/22 01:07:48;;;;;;;12.73;3.40;;;;;;;15.85;100.00;102017.09;6173710;23;20017;-81
2022/07/22 01:10:19;;;;;;;9.70;3.90;;;;;;;15.85;100.00;102027.72;6153709;23;20024;-81
2022/07/22 01:12:49;;;;;;;12.38;3.13;;;;;;;15.84;100.00;102015.31;6152584;23;20017;-81
2022/07/22 01:15:17;;;;;;;9.02;3.28;;;;;;;15.79;100.00;102024.19;6185211;23;20032;-80
2022/07/22 01:17:46;;;;;;;8.98;3.00;;;;;;;15.75;100.00;102019.75;6158979;23;20025;-80
2022/07/22 01:20:16;;;;;;;;;;;;;;;15.67;100.00;102026.81;6141138;23;20025;-80
2022/07/22 01:22:45;;;;;;;9.02;3.58;;;;;;;15.63;100.00;102022.34;6177898;23;19916;-80
2022/07/22 01:25:14;;;;;;;8.80;3.95;;;;;;;15.62;100.00;102019.72;6183086;23;20017;-80
2022/07/22 01:27:43;;;;;;;9.65;3.38;;;;;;;15.60;100.00;102022.38;6163238;23;20446;-80
2022/07/22 01:30:12;;;;;;;6.95;2.60;;;;;;;15.59;100.00;102024.16;6173634;23;20219;-81
2022/07/22 01:32:41;;;;;;;11.05;2.78;;;;;;;15.59;100.00;102024.16;6153155;23;20036;-81
2022/07/22 01:35:10;;;;;;;17.67;4.13;;;;;;;15.57;100.00;102017.03;6150042;23;20390;-79
2022/07/22 01:37:39;;;;;;;12.38;3.13;;;;;;;15.59;100.00;102012.63;6163646;23;20017;-81
2022/07/22 01:40:09;;;;;;;9.38;2.95;;;;;;;15.56;100.00;102020.59;6107729;23;20496;-80
2022/07/22 01:42:38;;;;;;;10.17;2.60;;;;;;;15.55;100.00;102013.50;6153062;23;20032;-80
2022/07/22 01:45:08;;;;;;;8.65;2.95;;;;;;;15.55;100.00;102018.81;6119551;23;20603;-80
2022/07/22 01:47:38;;;;;;;11.98;2.70;;;;;;;15.56;100.00;102028.56;6165019;23;20024;-80
2022/07/22 01:50:09;;;;;;;9.73;3.08;;;;;;;15.55;100.00;102027.66;6183686;23;20139;-80
2022/07/22 01:52:39;;;;;;;10.88;3.22;;;;;;;15.53;100.00;102029.44;6153074;23;20025;-80
2022/07/22 01:55:08;;;;;;;10.60;3.60;;;;;;;15.55;100.00;102029.44;6133185;23;20017;-80
2022/07/22 01:57:37;;;;;;;6.57;2.70;;;;;;;15.56;100.00;102024.13;6180778;23;20355;-81
2022/07/22 02:00:16;;;;;;;6.63;2.58;;;;;;;15.58;100.00;102021.50;6173751;23;20028;-80
2022/07/22 02:02:47;;;;;;;9.68;2.38;;;;;;;15.57;100.00;102022.34;6184931;23;20462;-80
2022/07/22 02:05:17;;;;;;;9.52;2.65;;;;;;;15.59;100.00;102021.50;6163200;23;20016;-80
2022/07/22 02:07:46;;;;;;;11.00;2.83;;;;;;;15.62;100.00;102025.03;6126947;23;20285;-81
2022/07/22 02:10:15;;;;;;;12.55;2.80;;;;;;;15.64;100.00;102015.28;6170289;23;20021;-80
2022/07/22 02:12:44;;;;;;;5.10;2.17;;;;;;;15.66;100.00;102026.81;6177877;23;20021;-80
2022/07/22 02:15:12;;;;;;;10.75;2.65;;;;;;;15.67;100.00;102018.84;6146989;23;20017;-81
2022/07/22 02:17:42;;;;;;;8.48;2.55;;;;;;;15.69;100.00;102027.69;6159795;23;20017;-79
2022/07/22 02:20:11;;;;;;;11.07;2.63;;;;;;;15.67;100.00;102016.19;6149187;23;20017;-80
2022/07/22 02:22:39;;;;;;;4.00;2.00;;;;;;;15.64;100.00;102028.56;6138052;23;20017;-80
2022/07/22 02:25:10;;;;;;;4.82;2.17;;;;;;;15.62;100.00;102017.94;6150015;23;20115;-79
2022/07/22 02:27:40;;;;;;;5.38;2.17;;;;;;;15.60;100.00;102017.94;6133339;23;20027;-80
2022/07/22 02:30:10;;;;;;;8.93;1.92;;;;;;;15.60;100.00;102012.63;6158959;23;20636;-81
2022/07/22 02:32:39;;;;;;;6.67;2.30;;;;;;;15.60;100.00;102020.59;6119983;23;20036;-79
2022/07/22 02:35:08;;;;;;;7.07;2.00;;;;;;;15.62;100.00;102019.72;6177266;23;20240;-81
2022/07/22 02:37:37;;;;;;;4.93;2.22;;;;;;;15.63;100.00;102017.03;6160315;23;20024;-81
2022/07/22 02:40:08;;;;;;;5.20;2.10;;;;;;;15.63;100.00;102022.34;6125463;23;20080;-80
2022/07/22 02:42:36;;;;;;;9.93;2.20;;;;;;;15.60;100.00;102015.28;6167131;23;20024;-80
2022/07/22 02:45:05;;;;;;;11.40;3.10;;;;;;;15.60;100.00;102019.72;6148442;23;20345;-79
2022/07/22 02:47:35;;;;;;;4.40;2.20;;;;;;;15.57;100.00;102019.69;6170272;23;20021;-80
2022/07/22 02:50:04;;;;;;;5.43;2.10;;;;;;;15.54;100.00;102019.72;6154726;23;20245;-80
2022/07/22 02:52:33;;;;;;;7.85;2.35;;;;;;;15.54;100.00;102017.94;6160968;23;20020;-81
2022/07/22 02:55:03;;;;;;;3.65;1.90;;;;;;;15.54;100.00;102020.59;6153472;23;20024;-81
2022/07/22 02:57:31;;;;;;;8.73;2.20;;;;;;;15.53;100.00;102017.94;6140699;23;20032;-79
2022/07/22 03:00:00;;;;;;;8.05;1.98;;;;;;;15.52;100.00;102022.38;6145438;23;20213;-80
2022/07/22 03:02:31;;;;;;;5.60;1.90;;;;;;;15.49;100.00;102017.03;6122423;23;20343;-81
2022/07/22 03:04:59;;;;;;;10.82;2.00;;;;;;;15.48;100.00;102032.97;6179731;23;20328;-79
2022/07/22 03:07:28;;;;;;;6.72;2.60;;;;;;;15.47;100.00;102028.56;6132982;23;20021;-79
2022/07/22 03:09:58;;;;;;;4.60;2.05;;;;;;;15.47;100.00;102029.44;6182013;23;20021;-80
2022/07/22 03:12:32;;;;;;;11.15;2.92;;;;;;;15.47;100.00;102034.75;6110199;23;20021;-81
2022/07/22 03:15:01;;;;;;;5.15;1.92;;;;;;;15.47;100.00;102040.06;6131807;23;20009;-80
2022/07/22 03:17:36;;;;;;;7.63;1.80;;;;;;;15.46;100.00;102035.63;6157551;23;20020;-80
2022/07/22 03:20:09;;;;;;;7.82;2.63;;;;;;;15.44;100.00;102034.72;6150266;23;20222;-80
2022/07/22 03:22:39;;;;;;;7.75;1.80;;;;;;;15.45;100.00;102040.94;6181592;23;20013;-81
2022/07/22 03:25:08;;;;;;;7.32;2.15;;;;;;;15.44;100.00;102028.53;6184551;23;20017;-80
2022/07/22 03:27:36;;;;;;;7.53;2.45;;;;;;;15.44;100.00;102029.41;6183966;23;20347;-81
2022/07/22 03:30:07;;;;;;;6.18;2.03;;;;;;;15.44;100.00;102029.41;6159076;23;20159;-80
2022/07/22 03:32:44;;;;;;;7.20;2.05;;;;;;;15.44;100.00;102032.06;6159776;23;20020;-80
2022/07/22 03:35:14;;;;;;;6.65;2.15;;;;;;;15.47;100.00;102032.09;6159754;23;20013;-81
2022/07/22 03:37:46;;;;;;;8.43;2.38;;;;;;;15.46;100.00;102022.34;6179043;23;20454;-81
2022/07/22 03:40:15;;;;;;;7.55;2.83;;;;;;;15.46;100.00;102027.66;6127224;23;20025;-80
2022/07/22 03:42:45;;;;;;;4.95;1.80;;;;;;;15.45;100.00;102025.88;6173345;23;20028;-80
2022/07/22 03:45:15;;;;;;;9.27;2.92;;;;;;;15.46;100.00;102024.09;6145975;23;20017;-80
2022/07/22 03:47:43;;;;;;;7.28;2.35;;;;;;;15.50;100.00;102031.19;6148412;23;20014;-80
2022/07/22 03:50:13;;;;;;;8.88;2.38;;;;;;;15.47;100.00;102032.09;6158084;23;20470;-80
2022/07/22 03:52:43;;;;;;;6.93;2.22;;;;;;;15.48;100.00;102028.56;6159649;23;20016;-81
2022/07/22 03:55:12;;;;;;;6.35;2.22;;;;;;;15.50;100.00;102029.44;6158607;23;20017;-81
2022/07/22 03:57:43;;;;;;;5.93;2.05;;;;;;;15.51;100.00;102025.88;6173651;23;20028;-81
2022/07/22 04:00:20;;;;;;;4.65;2.05;;;;;;;15.53;100.00;102037.41;6154026;23;20024;-81
2022/07/22 04:02:48;;;;;;;8.43;2.47;;;;;;;15.53;100.00;102034.75;6173417;23;20454;-81
2022/07/22 04:05:30;;;;;;;5.63;1.85;;;;;;;15.53;100.00;102037.41;6137598;23;20021;-80
2022/07/22 04:07:59;;;;;;;6.72;2.40;;;;;;;15.54;100.00;102044.50;6122759;23;20021;-81
2022/07/22 04:10:28;;;;;;;10.02;2.08;;;;;;;15.57;100.00;102032.97;6183543;23;20028;-80
2022/07/22 04:13:02;;;;;;;5.97;2.30;;;;;;;15.56;100.00;102045.38;6135428;23;20017;-81
2022/07/22 04:15:43;;;;;;;6.47;2.22;;;;;;;15.55;100.00;102038.28;6121664;23;20025;-81
2022/07/22 04:18:11;;;;;;;3.35;1.90;;;;;;;15.54;100.00;102035.66;6159681;23;20215;-81
2022/07/22 04:20:40;;;;;;;6.07;2.30;;;;;;;15.51;100.00;102036.53;6181306;23;20355;-81
2022/07/22 04:23:31;;;;;;;5.72;2.10;;;;;;;15.50;100.00;102037.41;6146111;23;20021;-81
2022/07/22 04:26:12;;;;;;;4.07;1.63;;;;;;;15.51;100.00;102043.59;6159882;23;20020;-80
2022/07/22 04:28:41;;;;;;;5.57;2.08;;;;;;;15.51;100.00;102039.19;6176262;23;20043;-80
2022/07/22 04:31:10;;;;;;;7.50;1.77;;;;;;;15.52;100.00;102043.63;6108289;23;20347;-81
2022/07/22 04:33:42;;;;;;;5.80;1.50;;;;;;;15.53;100.00;102045.38;6129126;23;20029;-81
2022/07/22 04:36:10;;;;;;;4.30;1.50;;;;;;;15.53;100.00;102037.41;6181633;23;20537;-81
2022/07/22 04:38:39;;;;;;;10.93;2.03;;;;;;;15.55;100.00;102042.72;6163378;23;20028;-80
2022/07/22 04:41:10;;;;;;;5.57;2.15;;;;;;;15.55;100.00;102043.59;6147529;23;20048;-80
2022/07/22 04:43:38;;;;;;;6.38;2.03;;;;;;;15.55;100.00;102038.28;6162056;23;20025;-81
2022/07/22 04:46:08;;;;;;;4.43;1.70;;;;;;;15.58;100.00;102038.31;6131987;23;20051;-81
2022/07/22 04:48:41;;;;;;;5.85;2.22;;;;;;;15.59;100.00;102033.88;6186176;23;20256;-80
2022/07/22 04:51:12;;;;;;;5.05;1.92;;;;;;;15.59;100.00;102034.78;6182893;23;20219;-80
2022/07/22 04:53:43;;;;;;;7.60;1.70;;;;;;;15.60;100.00;102047.16;6137466;23;20028;-80
2022/07/22 04:56:21;;;;;;;3.38;1.67;;;;;;;15.60;100.00;102035.66;6130163;23;20013;-79
2022/07/22 04:58:51;;;;;;;10.40;1.83;;;;;;;15.62;100.00;102043.63;6149469;23;20032;-80
2022/07/22 05:01:23;;;;;;;6.47;1.60;;;;;;;15.58;100.00;102034.78;6166411;23;20021;-79
2022/07/22 05:03:53;;;;;;;5.63;1.70;;;;;;;15.60;100.00;102035.66;6178491;23;20331;-80
2022/07/22 05:06:22;;;;;;;3.05;1.45;;;;;;;15.60;100.00;102036.53;6133207;23;20021;-79
2022/07/22 05:08:53;;;;;;;6.50;1.98;;;;;;;15.62;100.00;102040.97;6146425;23;20025;-80
2022/07/22 05:11:22;;;;;;;5.90;1.90;;;;;;;15.64;100.00;102034.78;6124974;23;20025;-80
2022/07/22 05:13:51;;;;;;;5.30;1.50;;;;;;;15.63;100.00;102040.94;6133624;23;20216;-80
2022/07/22 05:16:19;;;;;;;4.20;1.80;;;;;;;15.63;100.00;102048.03;6152626;23;20347;-79
2022/07/22 05:18:49;;;;;;;4.85;1.58;;;;;;;15.62;100.00;102039.19;6105510;23;20032;-80
2022/07/22 05:21:18;;;;;;;6.25;1.70;;;;;;;15.64;100.00;102034.78;6149776;23;20036;-79
2022/07/22 05:23:46;;;;;;;7.78;1.75;;;;;;;15.67;100.00;102041.84;6157396;23;20025;-79
2022/07/22 05:26:16;;;;;;;6.40;1.80;;;;;;;15.68;100.00;102038.31;6187087;23;20013;-80
2022/07/22 05:28:45;;;;;;;4.88;1.70;;;;;;;15.69;100.00;102038.31;6157548;23;20021;-80
2022/07/22 05:31:13;;;;;;;2.67;1.20;;;;;;;15.71;100.00;102033.91;6136234;23;20047;-80
2022/07/22 05:33:43;;;;;;;4.80;1.63;;;;;;;15.73;100.00;102032.16;6145073;23;20028;-80
2022/07/22 05:36:35;;;;;;;8.10;2.20;;;;;;;15.77;100.00;102025.06;6168078;23;20017;-80
2022/07/22 05:39:04;;;;;;;3.33;1.80;;;;;;;15.79;100.00;102034.81;6154934;23;20017;-80
2022/07/22 05:41:33;;;;;;;6.63;1.95;;;;;;;15.81;100.00;102034.81;6127429;23;20025;-80
2022/07/22 05:44:02;;;;;;;8.00;1.90;;;;;;;15.77;100.00;102038.38;6151270;23;20363;-80
2022/07/22 05:46:31;;;;;;;7.78;2.08;;;;;;;15.76;100.00;102039.22;6156799;23;20497;-80
2022/07/22 05:49:01;;;;;;;7.10;1.58;;;;;;;15.76;100.00;102040.16;6108336;23;20028;-80
2022/07/22 05:51:34;;;;;;;6.47;2.58;;;;;;;15.76;100.00;102036.56;6172776;23;20394;-79
2022/07/22 05:54:04;;;;;;;5.60;1.48;;;;;;;15.78;100.00;102049.00;6178310;23;20020;-79
2022/07/22 05:56:32;;;;;;;2.60;1.60;;;;;;;15.77;100.00;102049.88;6169651;23;20333;-79
2022/07/22 05:59:01;;;;;;;5.63;1.67;;;;;;;15.78;100.00;102051.66;6180317;23;20446;-79
2022/07/22 06:01:31;;;;;;;6.05;1.58;;;;;;;15.83;100.00;102049.00;6150375;23;20017;-79
2022/07/22 06:04:07;;;;;;;3.08;1.40;;;;;;;15.84;100.00;102052.53;6139181;23;20048;-79
2022/07/22 06:06:36;;;;;;;4.15;2.15;;;;;;;15.84;100.00;102061.41;6152464;23;20040;-79
2022/07/22 06:09:05;;;;;;;3.75;1.73;;;;;;;15.86;100.00;102064.03;6152509;23;20025;-79
2022/07/22 06:11:34;;;;;;;5.93;1.85;;;;;;;15.88;100.00;102065.84;6150712;23;20032;-79
2022/07/22 06:14:03;;;;;;;2.72;1.30;;;;;;;15.88;100.00;102063.19;6149357;23;20024;-78
2022/07/22 06:16:34;;;;;;;3.28;1.85;;;;;;;15.90;100.00;102064.06;6149126;23;20351;-79
2022/07/22 06:19:03;;;;;;;;;;;;;;;15.92;100.00;102064.06;6154924;23;20025;-79
2022/07/22 06:21:31;;;;;;;4.28;1.35;;;;;;;15.93;100.00;102066.69;6129413;23;19916;-79
2022/07/22 06:24:02;;;;;;;5.60;1.85;;;;;;;15.94;100.00;102060.50;6141944;23;20470;-79
2022/07/22 06:26:32;;;;;;;4.15;1.70;;;;;;;15.96;100.00;102058.75;6117291;23;20355;-79
2022/07/22 06:29:00;;;;;;;3.42;1.67;;;;;;;16.00;100.00;102064.06;6184385;23;20020;-79
2022/07/22 06:31:29;;;;;;;5.40;2.15;;;;;;;16.01;100.00;102064.06;6120736;23;20024;-79
2022/07/22 06:33:58;;;;;;;13.18;2.55;;;;;;;16.01;100.00;102065.81;6129435;23;20237;-79
2022/07/22 06:36:38;;;;;;;6.20;1.40;;;;;;;16.02;100.00;102064.94;6152072;23;20048;-79
2022/07/22 06:39:06;;;;;;;2.67;1.30;;;;;;;16.01;100.00;102066.72;6147610;23;20013;-79
2022/07/22 06:42:03;;;;;;;2.92;1.00;;;;;;;16.04;100.00;102068.50;6143437;23;20446;-79
2022/07/22 06:44:52;;;;;;;2.40;1.20;;;;;;;16.07;100.00;102069.38;6183867;23;20261;-80
2022/07/22 06:47:35;;;;;;;5.57;1.40;;;;;;;16.11;100.00;102072.94;6170984;23;20324;-80
2022/07/22 06:50:06;;;;;;;3.30;1.27;;;;;;;16.12;100.00;102077.34;6173732;23;20025;-79
2022/07/22 06:52:42;;;;;;;4.05;1.35;;;;;;;16.17;100.00;102076.47;6158385;23;20298;-80
2022/07/22 06:55:11;;;;;;;5.65;1.42;;;;;;;16.23;100.00;102059.59;6186465;23;20017;-80
2022/07/22 06:57:46;;;;;;;7.55;1.98;;;;;;;16.28;100.00;102062.28;6141719;23;20051;-80
2022/07/22 07:00:17;;;;;;;5.22;1.77;;;;;;;16.33;100.00;102061.38;6184997;23;20027;-81
2022/07/22 07:03:05;;;;;;;5.47;1.27;;;;;;;16.36;100.00;102061.38;6179697;23;20028;-78
2022/07/22 07:05:57;;;;;;;6.07;1.02;;;;;;;16.43;100.00;102064.03;6141510;23;20349;-78
2022/07/22 07:08:30;;;;;;;4.18;1.00;;;;;;;16.44;100.00;102065.78;6113293;23;20020;-78
2022/07/22 07:10:58;;;;;;;5.93;1.88;;;;;;;16.49;100.00;102064.91;6097795;23;20021;-79
2022/07/22 07:13:26;;;;;;;4.95;1.20;;;;;;;16.55;100.00;102066.66;6171443;23;20017;-79
2022/07/22 07:15:55;;;;;;;5.30;1.58;;;;;;;16.58;100.00;102066.66;6178582;23;20028;-79
2022/07/22 07:18:24;;;;;;;4.70;1.52;;;;;;;16.62;100.00;102067.53;6113948;23;20340;-78
2022/07/22 07:20:53;;;;;;;3.13;1.33;;;;;;;16.64;100.00;102071.97;6178516;23;20021;-78
2022/07/22 07:23:22;;;;;;;3.38;1.40;;;;;;;16.64;100.00;102065.75;6155157;23;20021;-78
2022/07/22 07:25:51;;;;;;;6.65;2.25;;;;;;;16.67;100.00;102065.75;6138244;23;20553;-78
2022/07/22 07:28:21;;;;;;;5.43;1.40;;;;;;;16.70;100.00;102060.41;6147699;23;20028;-78
2022/07/22 07:31:01;;;;;;;2.65;1.23;;;;;;;16.71;100.00;102073.72;6128894;23;20021;-80
2022/07/22 07:33:30;;;;;;;3.67;1.20;;;;;;;16.75;100.00;102066.63;6154610;23;20065;-81
2022/07/22 07:36:01;;;;;;;4.10;1.20;;;;;;;16.72;100.00;102058.63;6116936;23;20024;-79
2022/07/22 07:38:43;;;;;;;2.83;1.30;;;;;;;16.71;100.00;102064.84;6157008;23;20286;-80
2022/07/22 07:41:16;;;;;;;3.88;1.05;;;;;;;16.70;100.00;102060.41;6137761;23;20351;-80
2022/07/22 07:43:49;;;;;;;1.85;0.90;;;;;;;16.70;100.00;102066.63;6123765;23;20048;-78
2022/07/22 07:46:19;;;;;;;5.07;1.40;;;;;;;16.71;100.00;102067.50;6154590;23;20099;-77
2022/07/22 07:48:48;;;;;;;4.28;1.13;;;;;;;16.69;100.00;102072.84;6141094;23;20017;-80
2022/07/22 07:51:17;;;;;;;3.97;1.10;;;;;;;16.72;100.00;102067.50;6169583;23;20032;-80
2022/07/22 07:53:46;;;;;;;7.25;1.80;;;;;;;16.75;100.00;102069.28;6167816;23;20023;-78
2022/07/22 07:56:17;;;;;;;5.63;1.33;;;;;;;16.72;100.00;102072.81;6131721;23;20024;-78
2022/07/22 07:58:47;;;;;;;3.15;1.15;;;;;;;16.74;100.00;102067.50;6151102;23;20502;-78
2022/07/22 08:01:36;;;;;;;2.60;0.90;;;;;;;16.72;100.00;102071.94;6144741;23;20016;-80
2022/07/22 08:04:24;;;;;;;5.15;1.10;;;;;;;16.74;100.00;102067.50;6148787;23;20305;-79
2022/07/22 08:07:11;;;;;;;6.88;2.03;;;;;;;16.76;100.00;102063.06;6132978;23;20017;-78
2022/07/22 08:09:43;;;;;;;3.05;0.93;;;;;;;16.80;100.00;102066.59;6181124;23;20551;-81
2022/07/22 08:12:30;;;;;;;3.85;1.20;;;;;;;16.86;100.00;102074.59;6141047;23;20025;-81
2022/07/22 08:15:14;;;;;;;4.88;1.08;;;;;;;16.91;100.00;102064.81;6155291;23;20024;-78
2022/07/22 08:18:07;;;;;;;5.18;1.00;;;;;;;17.02;100.00;102062.13;6167290;23;20347;-80
2022/07/22 08:20:36;;;;;;;3.08;1.10;;;;;;;17.09;100.00;102069.19;6176412;23;20226;-80
2022/07/22 08:23:05;;;;;;;3.03;1.15;;;;;;;17.21;100.00;102065.59;6146164;23;20021;-78
2022/07/22 08:25:34;;;;;;;3.63;1.75;;;;;;;17.29;100.00;102067.28;6176987;23;20020;-78
2022/07/22 08:28:03;;;;;;;2.00;0.80;;;;;;;17.44;99.74;102066.31;6142406;23;20471;-80
2022/07/22 08:30:32;;;;;;;5.07;1.00;;;;;;;17.48;97.29;102064.53;6146348;23;20286;-80
2022/07/22 08:33:01;;;;;;;8.40;1.50;;;;;;;17.54;97.56;102073.38;6156865;23;20447;-80
2022/07/22 08:35:30;;;;;;;1.85;1.00;;;;;;;17.59;96.44;102069.81;6180770;23;20021;-80
2022/07/22 08:37:59;;;;;;;6.10;1.27;;;;;;;17.63;97.08;102077.75;6174141;23;20017;-80
2022/07/22 08:40:28;;;;;;;3.10;1.30;;;;;;;17.66;97.53;102072.41;6132049;23;20023;-80
2022/07/22 08:43:02;;;;;;;2.95;1.00;;;;;;;17.69;96.97;102082.16;6122747;23;20032;-80
2022/07/22 08:45:32;;;;;;;3.75;1.30;;;;;;;17.67;97.10;102078.63;6150779;23;20025;-80
2022/07/22 08:48:03;;;;;;;4.68;1.17;;;;;;;17.67;97.58;102079.50;6158317;23;20024;-80
2022/07/22 08:50:50;;;;;;;4.60;1.65;;;;;;;17.58;97.34;102086.66;6178474;23;20370;-80
2022/07/22 08:53:25;;;;;;;1.92;1.00;;;;;;;17.53;97.92;102089.38;6150962;23;20021;-81
2022/07/22 08:55:58;;;;;;;3.72;1.25;;;;;;;17.54;98.52;102097.38;6117615;23;20017;-80
2022/07/22 08:58:27;;;;;;;2.63;1.10;;;;;;;17.53;98.47;102098.25;6159954;23;20032;-80
2022/07/22 09:01:12;;;;;;;3.55;1.30;;;;;;;17.54;97.87;102099.13;6127924;23;20017;-81
2022/07/22 09:03:49;;;;;;;4.53;1.20;;;;;;;17.51;97.00;102092.03;6174303;23;20028;-81
2022/07/22 09:06:20;;;;;;;4.63;1.23;;;;;;;17.53;96.68;102092.03;6186653;23;20017;-80
2022/07/22 09:08:53;;;;;;;5.85;1.40;;;;;;;17.54;97.07;102089.38;6143701;23;20025;-81
2022/07/22 09:11:40;;;;;;;2.22;1.00;;;;;;;17.57;96.48;102091.13;6186471;23;20013;-80
2022/07/22 09:14:43;;;;;;;18.42;2.72;;;;;;;17.59;96.19;102085.78;6115333;23;20028;-80
2022/07/22 09:17:36;;;;;;;3.70;1.10;;;;;;;17.68;96.71;102083.06;6151063;23;20025;-80
2022/07/22 09:20:22;;;;;;;5.72;1.10;;;;;;;17.71;96.28;102091.94;6179279;23;20025;-80
2022/07/22 09:23:22;;;;;;;4.22;1.35;;;;;;;17.72;96.29;102092.81;6169824;23;20402;-80
2022/07/22 09:25:51;;;;;;;1.40;1.10;;;;;;;17.76;96.92;102089.22;6177580;23;20288;-81
2022/07/22 09:28:28;;;;;;;2.88;1.10;;;;;;;17.77;96.60;102085.69;6164736;23;20021;-80
2022/07/22 09:31:29;;;;;;;2.55;1.10;;;;;;;17.76;95.25;102085.69;6142624;23;20158;-81
2022/07/22 09:34:26;;;;;;;2.20;1.23;;;;;;;17.77;95.21;102088.34;6157969;23;20119;-80
2022/07/22 09:36:56;;;;;;;5.72;0.95;;;;;;;17.79;95.98;102085.63;6149920;23;20362;-81
2022/07/22 09:39:29;;;;;;;5.70;1.40;;;;;;;17.80;95.38;102090.97;6147878;23;20017;-81
2022/07/22 09:42:04;;;;;;;3.35;1.10;;;;;;;17.81;95.30;102092.75;6179658;23;20478;-81
2022/07/22 09:44:33;;;;;;;3.30;1.20;;;;;;;17.85;95.38;102096.31;6170617;23;20021;-80
2022/07/22 09:47:30;;;;;;;2.00;1.00;;;;;;;17.88;93.33;102099.84;6161119;23;20017;-80
2022/07/22 09:50:31;;;;;;;5.70;1.00;;;;;;;17.96;94.85;102090.88;6152643;23;20013;-79
2022/07/22 09:53:17;;;;;;;1.95;1.15;;;;;;;18.05;94.22;102096.16;6161570;23;20039;-79
2022/07/22 09:55:57;;;;;;;3.47;0.82;;;;;;;18.12;93.92;102093.41;6140112;23;20017;-79
2022/07/22 09:58:27;;;;;;;2.73;1.03;;;;;;;18.19;93.81;102093.38;6149100;23;20017;-78
2022/07/22 10:01:03;;;;;;;3.40;1.30;;;;;;;18.23;91.64;102101.34;6160544;23;20494;-80
2022/07/22 10:03:36;;;;;;;1.90;1.00;;;;;;;18.25;92.65;102096.88;6183041;23;20021;-83
2022/07/22 10:06:07;;;;;;;3.80;0.98;;;;;;;18.25;92.62;102104.00;6170181;23;20029;-80
2022/07/22 10:08:38;;;;;;;;;;;;;;;18.23;89.81;102112.00;6158939;23;20021;-78
2022/07/22 10:11:07;;;;;;;3.85;0.98;;;;;;;18.25;93.07;102109.34;6172676;23;19920;-78
2022/07/22 10:13:38;;;;;;;4.78;1.10;;;;;;;18.26;92.80;102106.66;6150431;23;20021;-79
2022/07/22 10:16:09;;;;;;;1.75;0.80;;;;;;;18.29;93.54;102111.06;6161716;23;20498;-78
2022/07/22 10:18:39;;;;;;;2.50;0.93;;;;;;;18.33;93.66;102106.59;6128047;23;20347;-79
2022/07/22 10:21:10;;;;;;;2.40;1.10;;;;;;;18.33;93.58;102109.25;6181515;23;20213;-80
2022/07/22 10:24:07;;;;;;;3.22;1.10;;;;;;;18.29;92.10;102109.28;6138632;23;20060;-79
2022/07/22 10:26:55;;;;;;;6.00;1.25;;;;;;;18.30;93.00;102108.41;6161588;23;20372;-80
2022/07/22 10:29:39;;;;;;;3.78;0.77;;;;;;;18.28;92.89;102112.00;6169233;23;20021;-79
2022/07/22 10:32:17;;;;;;;2.53;0.93;;;;;;;18.19;92.63;102110.28;6134971;23;20020;-80
2022/07/22 10:34:57;;;;;;;4.88;1.33;;;;;;;18.14;93.17;102111.22;6176034;23;20332;-79
2022/07/22 10:37:37;;;;;;;5.15;1.55;;;;;;;18.05;93.25;102102.38;6160194;23;20013;-80
2022/07/22 10:40:28;;;;;;;5.22;1.15;;;;;;;18.02;94.37;102101.53;6146087;23;20025;-78
2022/07/22 10:42:56;;;;;;;;;;;;;;;17.97;95.36;102109.53;6170789;23;20068;-79
2022/07/22 10:45:27;;;;;;;4.05;1.45;;;;;;;17.85;97.81;102106.97;6140624;23;19931;-78
2022/07/22 10:48:05;;;;;;;4.18;1.20;;;;;;;17.77;99.33;102100.75;6138000;23;20024;-79
2022/07/22 10:50:41;;;;;;;3.78;1.10;;;;;;;17.72;100.00;102096.34;6151285;23;20124;-79
2022/07/22 10:53:10;;;;;;;5.55;1.08;;;;;;;17.73;100.00;102105.22;6176752;23;20493;-79
2022/07/22 10:55:58;;;;;;;3.43;1.23;;;;;;;17.73;100.00;102089.22;6175241;23;20385;-79
2022/07/22 10:58:33;;;;;;;7.47;1.67;;;;;;;17.78;100.00;102084.75;6171209;23;20449;-79
2022/07/22 11:01:06;;;;;;;4.78;0.90;;;;;;;17.82;99.95;102078.50;6181594;23;20031;-79
2022/07/22 11:03:36;;;;;;;4.57;1.30;;;;;;;17.91;98.80;102083.81;6154571;23;20506;-79
2022/07/22 11:06:23;;;;;;;5.38;1.30;;;;;;;18.04;97.83;102078.41;6180032;23;20025;-79
2022/07/22 11:08:57;;;;;;;4.70;1.08;;;;;;;18.19;98.65;102086.25;6176495;23;20024;-79
2022/07/22 11:11:47;;;;;;;2.47;1.25;;;;;;;18.44;97.55;102078.91;6174331;23;20025;-79
2022/07/22 11:14:33;;;;;;;3.20;1.00;;;;;;;18.60;97.16;102073.41;6174610;23;20366;-80
2022/07/22 11:17:10;;;;;;;2.95;0.77;;;;;;;18.74;96.51;102073.28;6160946;23;20242;-81
2022/07/22 11:19:40;;;;;;;5.05;1.35;;;;;;;18.84;96.81;102072.28;6159414;23;20029;-79
2022/07/22 11:22:11;;;;;;;4.28;1.00;;;;;;;19.01;95.91;102072.94;6174251;23;20046;-79
2022/07/22 11:24:40;;;;;;;2.67;1.08;;;;;;;19.13;95.15;102058.56;6134917;23;20029;-79
2022/07/22 11:27:17;;;;;;;1.58;0.82;;;;;;;19.32;95.66;102053.88;6177216;23;20597;-79
2022/07/22 11:29:50;;;;;;;3.58;0.95;;;;;;;19.43;93.75;102051.91;6147842;23;20028;-80
2022/07/22 11:32:21;;;;;;;2.80;1.00;;;;;;;19.40;92.81;102054.63;6170548;23;20032;-79
2022/07/22 11:34:58;;;;;;;1.77;0.85;;;;;;;19.35;93.14;102055.59;6137810;23;20244;-80
2022/07/22 11:37:28;;;;;;;10.38;1.23;;;;;;;19.29;93.63;102051.22;6172006;23;20458;-78
2022/07/22 11:40:03;;;;;;;3.15;1.08;;;;;;;19.22;93.92;102057.56;6165245;23;20025;-81
2022/07/22 11:42:32;;;;;;;2.63;1.30;;;;;;;19.16;94.79;102053.16;6155079;23;20060;-82
2022/07/22 11:45:01;;;;;;;3.80;1.20;;;;;;;19.07;95.42;102059.53;6131810;23;20025;-81